lufthavns vejr - vejr3
d.9/8 - Husk at se Meteorsværmen Perseiderne, op mod 110 stjerneskud i timen


Vejr3>N more information Vejr3>N


Vejr3>V more information Vejr3>V


3 timers nedbørs radar more information rain snow radar


besøg nogle andre vejrsider:

Template dokumentation
og downloads

And another site


lokal metar reports

   
EKRK - Roskilde
opdateret: 16-08-2018 19:20
få skyer  
få skyer  
   vind: sø 5.1 m/s
vind: sø 5.1 m/s
temperatur: 22°C
dugpunkt: 17°C
fugtighed: 73%
barometer: 1014 hPa
skyer: Few Clouds
sigt: 10 km
sky detaljer: få skyer 1524 m
EKRK 161720Z AUTO 14010KT 9999NDV FEW050/// 22/17 Q1014
EKCH - Copenhagen
opdateret: 16-08-2018 19:20
klart  
klart  
   vind: ssø 4.1 m/s
vind: ssø 4.1 m/s
temperatur: 22°C
dugpunkt: 18°C
fugtighed: 78%
barometer: 1014 hPa
sigt: mere end 10 km
sky detaljer: klart m
EKCH 161720Z 15008KT CAVOK 22/18 Q1014 NOSIG
EHBK - Maastricht
opdateret: 16-08-2018 19:25
delvis skyet  
delvis skyet  
   vind: vnv 2.1 m/s
vind: vnv 2.1 m/s
temperatur: 26°C
dugpunkt: 15°C
fugtighed: 51%
barometer: 1013 hPa
skyer: Partly Cloudy
sigt: mere end 10 km
sky detaljer: delvis skyet m
EHBK 161725Z AUTO 30004KT 250V350 9999 NSC 26/15 Q1013 NOSIG
ELLX - Luxemburg
opdateret: 16-08-2018 19:20
klart  
klart  
   vind: syd 2.6 m/s
vind: syd 2.6 m/s
temperatur: 27°C
dugpunkt: 11°C
fugtighed: 37%
barometer: 1014 hPa
sigt: mere end 10 km
sky detaljer: klart m
ELLX 161720Z 19005KT 150V230 CAVOK 27/11 Q1014 NOSIG
  

script udviklet af  Saratoga-weather.org tilpasset til dette template  Weerstation Leuven

du finder også vores vejrinformationer på:

European Weather Network

Weather Underground

AWEKAS

WeatherlinkIP

Citizen Weather Observer Program (CWOP)

udstyr som vi anvender:

vejrstation
Davis VP2+

vejrprogram
Weather Display

vejrserver
Dell E6400

hjemmeside host
Webhosting.dk

Davis VP2+

Weather Display

Dell E6400

Webhosting.dk